EDTY METAR and TAF | Updated Today

EDTY METAR

Adolf Würth Airport

Observation time: 14 min. ago

EDTY 200750Z VRB04KT CAVOK 22/16 Q1022

Need help? Read our tutorial on how to read METARs or read the parsed version below.

Adolf Würth Airport (EDTY) METAR

  • Weather conditions on Fri, 20 May 2022 07:50:00 +0000 (14 min. ago):
  • Present conditions: Dry
  • Clouds: Clear skies
  • Visibility: Greater than 10 km
  • Wind: Variable at 4 knots
  • Temperature: 22 celsius
  • Dew point: 16 celsius
  • Pressure: 1022 millibars
  • Remarks: None


Useful to know...

EDTY TAF

Adolf Würth Airport

TAF EDTY 200543Z 2006/2015 09003KT CAVOK BECMG 2008/2010 21008KT
Observation time: 2:21 hr. ago
Need help? Read our tutorial on how to read TAFs or read the parsed version below.

Parsed version of TAF for Adolf Würth Airport (EDTY)

  • From 20 May at 06:00 UTC, to day 20 of the month at 15:00 UTC
  • Visibility: Greater than 10 km
  • Wind: 90 degrees at 3
  • Expected to arise soon, from 20 May at 08:00 UTC, to day 20 of the month at 10:00 UTC
  • Wind: 210 degrees at 8

Airports near EDTY

EDDS Weather
IATA: STR
Region: Stuttgart

Stuttgart Airport

Found in our database
ETIK Weather
Region: Storck Barracks

Illesheim Air Base

Not found in our database